createdAt,value
2023-01-19T00:02:03.795Z,2.58
2023-01-19T00:05:07.529Z,10.20
2023-01-19T00:08:15.665Z,1.83
2023-01-19T00:11:19.245Z,11.52
2023-01-19T00:14:22.587Z,1.95
2023-01-19T00:17:25.520Z,0.93
2023-01-19T00:20:29.071Z,1.42
2023-01-19T00:23:32.225Z,3.13
2023-01-19T00:26:35.422Z,5.35
2023-01-19T00:29:38.285Z,1.13
2023-01-19T00:32:41.258Z,0.40
2023-01-19T00:35:44.666Z,6.45
2023-01-19T00:38:47.947Z,2.83
2023-01-19T00:42:09.137Z,1.35
2023-01-19T00:45:20.334Z,6.40
2023-01-19T00:48:24.334Z,2.60
2023-01-19T00:51:28.257Z,9.73
2023-01-19T00:54:31.911Z,7.53
2023-01-19T00:57:35.994Z,7.63
2023-01-19T01:00:39.589Z,4.70
2023-01-19T01:03:43.678Z,2.42
2023-01-19T01:06:47.480Z,7.03
2023-01-19T01:09:52.524Z,5.97
2023-01-19T01:12:58.027Z,3.83
2023-01-19T01:16:19.939Z,2.08
2023-01-19T01:19:24.294Z,11.03
2023-01-19T01:22:27.990Z,13.48
2023-01-19T01:25:32.458Z,16.35
2023-01-19T01:28:35.785Z,15.30
2023-01-19T01:31:39.820Z,15.30
2023-01-19T01:34:43.688Z,15.48
2023-01-19T01:37:47.750Z,7.18
2023-01-19T01:40:51.401Z,4.13
2023-01-19T01:44:03.056Z,16.02
2023-01-19T01:47:06.713Z,5.25
2023-01-19T01:50:18.784Z,1.03
2023-01-19T01:53:21.760Z,2.67
2023-01-19T01:56:30.679Z,18.15
2023-01-19T01:59:41.033Z,13.15
2023-01-19T02:02:51.992Z,4.32
2023-01-19T02:05:59.773Z,8.98
2023-01-19T02:09:28.052Z,5.45
2023-01-19T02:12:49.195Z,5.00
2023-01-19T02:16:18.745Z,10.07
2023-01-19T02:19:32.612Z,5.47
2023-01-19T02:22:47.541Z,6.63
2023-01-19T02:25:51.378Z,1.73
2023-01-19T02:29:04.689Z,7.22
2023-01-19T02:32:08.459Z,10.63
2023-01-19T02:35:13.617Z,11.45
2023-01-19T02:38:19.858Z,3.28
2023-01-19T02:41:28.977Z,1.45
2023-01-19T02:44:34.331Z,9.07
2023-01-19T02:47:41.093Z,10.32
2023-01-19T02:50:48.046Z,4.35
2023-01-19T02:54:04.092Z,10.53
2023-01-19T02:57:13.541Z,7.72
2023-01-19T03:00:31.032Z,11.90
2023-01-19T03:04:01.117Z,10.57
2023-01-19T03:07:22.133Z,3.42
2023-01-19T03:10:37.233Z,7.22
2023-01-19T03:14:01.750Z,6.72
2023-01-19T03:17:07.937Z,4.57
2023-01-19T03:20:15.075Z,2.97
2023-01-19T03:26:59.569Z,5.03
2023-01-19T03:30:09.002Z,10.50
2023-01-19T03:33:33.652Z,11.63
2023-01-19T03:36:43.370Z,4.85
2023-01-19T03:39:46.398Z,1.83
2023-01-19T03:42:51.424Z,1.17
2023-01-19T03:45:57.375Z,2.47
2023-01-19T03:49:01.777Z,13.50
2023-01-19T03:52:05.928Z,9.07
2023-01-19T03:55:10.874Z,5.20
2023-01-19T03:58:14.453Z,5.17
2023-01-19T04:01:21.584Z,4.45
2023-01-19T04:04:26.127Z,6.43
2023-01-19T04:07:30.073Z,2.05
2023-01-19T04:10:34.399Z,3.15
2023-01-19T04:13:39.690Z,4.13
2023-01-19T04:16:42.593Z,7.55
2023-01-19T04:19:46.334Z,18.33
2023-01-19T04:22:50.200Z,6.10
2023-01-19T04:25:59.808Z,6.88
2023-01-19T04:29:02.854Z,3.33
2023-01-19T04:32:07.155Z,5.68
2023-01-19T04:35:10.952Z,4.32
2023-01-19T04:38:14.653Z,2.38
2023-01-19T04:41:18.872Z,3.58
2023-01-19T04:44:22.922Z,2.75
2023-01-19T04:47:26.984Z,6.20
2023-01-19T04:50:31.143Z,3.40
2023-01-19T04:53:34.947Z,5.55
2023-01-19T04:56:38.412Z,5.13
2023-01-19T04:59:43.524Z,4.43
2023-01-19T05:03:11.683Z,3.47
2023-01-19T05:06:14.631Z,3.70
2023-01-19T05:09:17.624Z,2.10
2023-01-19T05:12:21.091Z,2.45
2023-01-19T05:15:24.679Z,1.65
2023-01-19T05:18:30.494Z,4.75
2023-01-19T05:21:33.546Z,3.40
2023-01-19T05:24:37.149Z,4.00
2023-01-19T05:27:40.155Z,4.38
2023-01-19T05:30:43.673Z,2.20
2023-01-19T05:33:48.774Z,1.23
2023-01-19T05:36:52.585Z,3.05
2023-01-19T05:39:55.500Z,2.53
2023-01-19T05:43:02.324Z,5.00
2023-01-19T05:46:06.013Z,6.70
2023-01-19T05:49:09.716Z,5.82
2023-01-19T05:52:13.379Z,5.30
2023-01-19T05:55:17.164Z,2.90
2023-01-19T05:58:20.523Z,1.83
2023-01-19T06:01:24.590Z,4.03
2023-01-19T06:04:27.868Z,4.20
2023-01-19T06:07:32.339Z,4.47
2023-01-19T06:10:35.249Z,10.95
2023-01-19T06:13:41.348Z,0.52
2023-01-19T06:16:45.624Z,7.50
2023-01-19T06:19:49.203Z,6.10
2023-01-19T06:22:52.864Z,6.90
2023-01-19T06:25:55.890Z,7.43
2023-01-19T06:29:00.037Z,9.73
2023-01-19T06:32:03.032Z,11.10
2023-01-19T06:35:08.376Z,5.75
2023-01-19T06:38:11.381Z,11.55
2023-01-19T06:41:15.087Z,8.77
2023-01-19T06:44:18.395Z,4.82
2023-01-19T06:47:21.205Z,4.47
2023-01-19T06:50:24.191Z,3.35
2023-01-19T06:53:28.529Z,0.77
2023-01-19T06:56:31.528Z,7.35
2023-01-19T06:59:34.407Z,8.35
2023-01-19T07:02:37.646Z,2.67
2023-01-19T07:05:40.634Z,2.78
2023-01-19T07:08:44.119Z,5.13
2023-01-19T07:11:47.879Z,4.47
2023-01-19T07:14:52.306Z,4.70
2023-01-19T07:17:59.724Z,6.80
2023-01-19T07:21:05.884Z,2.97
2023-01-19T07:24:09.937Z,3.30
2023-01-19T07:27:13.620Z,6.03
2023-01-19T07:30:42.991Z,8.88
2023-01-19T07:33:47.722Z,2.90
2023-01-19T07:36:51.752Z,4.07
2023-01-19T07:39:54.657Z,6.32
2023-01-19T07:42:59.013Z,4.85
2023-01-19T07:46:04.681Z,0.65
2023-01-19T07:49:08.957Z,4.15
2023-01-19T07:52:11.813Z,2.70
2023-01-19T07:55:14.855Z,6.43
2023-01-19T07:58:17.685Z,4.15
2023-01-19T08:01:20.672Z,10.60
2023-01-19T08:04:24.986Z,11.93
2023-01-19T08:07:28.546Z,15.55
2023-01-19T08:10:35.400Z,10.15
2023-01-19T08:13:39.404Z,17.02
2023-01-19T08:16:42.393Z,12.82
2023-01-19T08:19:46.089Z,7.28
2023-01-19T08:22:48.960Z,11.02
2023-01-19T08:25:51.984Z,10.67
2023-01-19T08:28:55.395Z,2.75
2023-01-19T08:32:00.705Z,11.57
2023-01-19T08:35:04.925Z,12.63
2023-01-19T08:38:09.757Z,25.13
2023-01-19T08:41:13.231Z,7.20
2023-01-19T08:44:16.791Z,6.60
2023-01-19T08:47:20.498Z,13.90
2023-01-19T08:50:24.277Z,8.18
2023-01-19T08:53:27.504Z,7.15
2023-01-19T08:56:30.447Z,11.47
2023-01-19T08:59:33.727Z,14.05
2023-01-19T09:02:38.298Z,17.25
2023-01-19T09:05:42.523Z,11.13
2023-01-19T09:08:45.995Z,4.28
2023-01-19T09:11:49.963Z,6.72
2023-01-19T09:14:52.978Z,34.38
2023-01-19T09:17:56.300Z,8.70
2023-01-19T09:21:00.312Z,6.95
2023-01-19T09:24:04.599Z,18.70
2023-01-19T09:27:08.395Z,8.03
2023-01-19T09:30:13.196Z,4.32
2023-01-19T09:33:18.442Z,22.77
2023-01-19T09:36:22.516Z,29.13
2023-01-19T09:39:25.438Z,16.27
2023-01-19T09:43:05.565Z,13.02
2023-01-19T09:46:20.011Z,7.38
2023-01-19T09:49:37.470Z,9.45
2023-01-19T09:52:45.216Z,9.00
2023-01-19T09:55:48.159Z,2.08
2023-01-19T09:58:52.377Z,10.63
2023-01-19T10:01:55.726Z,2.70
2023-01-19T10:05:00.853Z,4.75
2023-01-19T10:08:26.489Z,25.77
2023-01-19T10:11:52.738Z,24.33
2023-01-19T10:15:23.736Z,9.85
2023-01-19T10:18:46.747Z,34.38
2023-01-19T10:21:54.460Z,20.17
2023-01-19T10:25:08.926Z,21.52
2023-01-19T10:28:14.039Z,21.35
2023-01-19T10:31:21.419Z,31.83
2023-01-19T10:34:25.225Z,35.53
2023-01-19T10:37:30.595Z,14.40
2023-01-19T10:41:01.583Z,15.43
2023-01-19T10:44:06.702Z,7.25
2023-01-19T10:47:21.148Z,21.02
2023-01-19T10:50:33.617Z,2.88
2023-01-19T10:53:37.960Z,5.32
2023-01-19T10:56:42.195Z,4.70
2023-01-19T10:59:45.002Z,19.00
2023-01-19T11:02:52.757Z,13.63
2023-01-19T11:06:15.928Z,20.90
2023-01-19T11:09:21.966Z,33.72
2023-01-19T11:12:25.234Z,18.07
2023-01-19T11:15:57.982Z,7.97
2023-01-19T11:19:03.281Z,12.32
2023-01-19T11:22:23.563Z,21.92
2023-01-19T11:25:31.767Z,13.48
2023-01-19T11:28:46.902Z,24.27
2023-01-19T11:31:50.842Z,12.40
2023-01-19T11:34:54.546Z,11.97
2023-01-19T11:38:23.639Z,4.78
2023-01-19T11:41:37.808Z,6.55
2023-01-19T11:44:52.024Z,5.83
2023-01-19T11:47:57.719Z,10.57
2023-01-19T11:51:05.304Z,21.42
2023-01-19T11:54:20.076Z,18.95
2023-01-19T11:57:23.117Z,8.77
2023-01-19T12:00:45.247Z,9.07
2023-01-19T12:04:16.185Z,7.22
2023-01-19T12:07:24.442Z,29.13
2023-01-19T12:10:32.201Z,7.43
2023-01-19T12:13:36.337Z,9.65
2023-01-19T12:16:42.256Z,11.20
2023-01-19T12:19:55.124Z,4.80
2023-01-19T12:23:03.881Z,23.90
2023-01-19T12:26:31.486Z,21.15
2023-01-19T12:29:37.571Z,13.90
2023-01-19T12:32:40.447Z,25.33
2023-01-19T12:36:01.760Z,6.72
2023-01-19T12:39:05.342Z,29.10
2023-01-19T12:42:19.373Z,24.52
2023-01-19T12:45:29.469Z,16.45
2023-01-19T12:48:33.794Z,30.27
2023-01-19T12:51:37.721Z,16.98
2023-01-19T12:55:03.752Z,24.75
2023-01-19T12:58:15.691Z,10.73
2023-01-19T13:01:22.222Z,8.60
2023-01-19T13:04:34.133Z,7.65
2023-01-19T13:08:03.594Z,2.15
2023-01-19T13:11:06.966Z,10.83
2023-01-19T13:14:36.457Z,4.68
2023-01-19T13:17:51.941Z,2.60
2023-01-19T13:21:01.062Z,4.67
2023-01-19T13:24:07.324Z,4.70
2023-01-19T13:27:14.385Z,3.13
2023-01-19T13:30:20.195Z,15.15
2023-01-19T13:33:27.679Z,12.55
2023-01-19T13:36:38.059Z,4.63
2023-01-19T13:39:45.234Z,10.48
2023-01-19T13:42:50.450Z,2.57
2023-01-19T13:45:55.919Z,11.30
2023-01-19T13:49:14.295Z,4.80
2023-01-19T13:52:22.757Z,4.63
2023-01-19T13:55:31.624Z,20.88
2023-01-19T13:58:35.775Z,10.07
2023-01-19T14:01:43.755Z,14.77
2023-01-19T14:04:47.351Z,19.65
2023-01-19T14:08:03.434Z,30.40
2023-01-19T14:11:08.109Z,13.68
2023-01-19T14:14:28.636Z,4.07
2023-01-19T14:17:33.518Z,6.15
2023-01-19T14:20:39.273Z,9.63
2023-01-19T14:23:50.751Z,9.53
2023-01-19T14:26:56.738Z,9.48
2023-01-19T14:30:21.217Z,9.80
2023-01-19T14:33:40.940Z,3.25
2023-01-19T14:36:43.925Z,7.95
2023-01-19T14:40:01.590Z,6.82
2023-01-19T14:43:07.083Z,16.90
2023-01-19T14:46:19.515Z,19.00
2023-01-19T14:49:38.589Z,32.58
2023-01-19T14:52:43.835Z,14.52
2023-01-19T14:55:51.901Z,51.43
2023-01-19T14:58:57.045Z,22.40
2023-01-19T15:02:00.684Z,14.65
2023-01-19T15:05:05.119Z,23.38
2023-01-19T15:08:12.979Z,26.02
2023-01-19T15:11:33.589Z,6.22
2023-01-19T15:14:36.435Z,11.52
2023-01-19T15:17:40.521Z,9.87
2023-01-19T15:20:44.421Z,10.30
2023-01-19T15:23:48.868Z,7.03
2023-01-19T15:26:52.422Z,15.53
2023-01-19T15:29:55.811Z,7.82
2023-01-19T15:32:59.565Z,13.63
2023-01-19T15:36:02.632Z,8.15
2023-01-19T15:39:05.644Z,10.15
2023-01-19T15:42:17.517Z,6.80
2023-01-19T15:45:34.293Z,17.75
2023-01-19T15:48:37.114Z,12.37
2023-01-19T15:51:39.919Z,17.45
2023-01-19T15:54:43.073Z,19.10
2023-01-19T15:57:46.039Z,28.17
2023-01-19T16:00:57.460Z,13.93
2023-01-19T16:04:02.737Z,12.75
2023-01-19T16:07:05.926Z,8.10
2023-01-19T16:10:10.135Z,7.90
2023-01-19T16:13:13.421Z,17.70
2023-01-19T16:16:19.936Z,16.63
2023-01-19T16:19:23.835Z,5.27
2023-01-19T16:22:26.647Z,16.55
2023-01-19T16:25:31.592Z,24.30
2023-01-19T16:28:38.763Z,6.70
2023-01-19T16:31:43.951Z,11.98
2023-01-19T16:35:03.552Z,5.32
2023-01-19T16:38:06.451Z,7.65
2023-01-19T16:41:11.076Z,16.20
2023-01-19T16:44:16.112Z,9.73
2023-01-19T16:47:19.145Z,6.70
2023-01-19T16:50:22.141Z,8.43
2023-01-19T16:53:25.989Z,8.95
2023-01-19T16:56:29.979Z,13.63
2023-01-19T16:59:32.867Z,29.73
2023-01-19T17:02:35.806Z,24.77
2023-01-19T17:05:39.768Z,20.52
2023-01-19T17:08:43.565Z,37.33
2023-01-19T17:11:47.324Z,11.88
2023-01-19T17:14:50.257Z,12.40
2023-01-19T17:17:53.283Z,7.45
2023-01-19T17:21:01.771Z,13.07
2023-01-19T17:24:05.822Z,15.98
2023-01-19T17:27:09.078Z,13.07
2023-01-19T17:30:13.023Z,17.23
2023-01-19T17:33:16.252Z,16.98
2023-01-19T17:36:22.906Z,21.33
2023-01-19T17:39:25.769Z,8.32
2023-01-19T17:42:28.694Z,9.23
2023-01-19T17:45:31.977Z,13.75
2023-01-19T17:48:35.228Z,15.68
2023-01-19T17:51:38.824Z,12.37
2023-01-19T17:54:42.164Z,11.45
2023-01-19T17:57:45.084Z,13.82
2023-01-19T18:00:48.001Z,23.40
2023-01-19T18:03:51.656Z,38.33
2023-01-19T18:06:54.558Z,32.08
2023-01-19T18:10:00.163Z,17.08
2023-01-19T18:13:04.825Z,14.68
2023-01-19T18:16:14.464Z,17.17
2023-01-19T18:19:17.995Z,16.58
2023-01-19T18:22:21.162Z,27.47
2023-01-19T18:25:24.161Z,18.17
2023-01-19T18:28:28.770Z,25.60
2023-01-19T18:31:31.808Z,9.53
2023-01-19T18:34:34.829Z,10.07
2023-01-19T18:37:38.453Z,9.50
2023-01-19T18:40:42.271Z,8.25
2023-01-19T18:43:47.192Z,7.00
2023-01-19T18:46:50.882Z,9.07
2023-01-19T18:49:53.756Z,6.78
2023-01-19T18:52:57.524Z,9.47
2023-01-19T18:56:03.005Z,4.75
2023-01-19T18:59:06.636Z,8.77
2023-01-19T19:02:12.235Z,15.97
2023-01-19T19:05:15.992Z,1.95
2023-01-19T19:08:19.600Z,35.58
2023-01-19T19:11:24.821Z,2.35
2023-01-19T19:14:28.754Z,4.47
2023-01-19T19:17:32.664Z,3.63
2023-01-19T19:20:39.616Z,12.93
2023-01-19T19:23:43.309Z,5.17
2023-01-19T19:26:48.910Z,18.17
2023-01-19T19:29:52.704Z,7.95
2023-01-19T19:32:57.303Z,5.97
2023-01-19T19:36:00.663Z,18.02
2023-01-19T19:39:04.869Z,38.17
2023-01-19T19:42:08.416Z,77.10
2023-01-19T19:45:13.113Z,90.55
2023-01-19T19:48:16.676Z,67.95
2023-01-19T19:51:23.125Z,52.75
2023-01-19T19:54:26.144Z,49.07
2023-01-19T19:57:30.186Z,88.22
2023-01-19T20:00:33.894Z,65.38
2023-01-19T20:03:37.261Z,71.83
2023-01-19T20:06:45.205Z,57.60
2023-01-19T20:09:49.710Z,63.83
2023-01-19T20:12:52.606Z,64.40
2023-01-19T20:15:55.822Z,74.22
2023-01-19T20:18:59.460Z,82.93
2023-01-19T20:22:03.419Z,79.97
2023-01-19T20:25:07.790Z,54.67
2023-01-19T20:28:11.857Z,73.25
2023-01-19T20:31:15.795Z,93.60
2023-01-19T20:34:22.199Z,94.40
2023-01-19T20:37:25.873Z,121.95
2023-01-19T20:40:29.853Z,110.88
2023-01-19T20:43:33.487Z,78.32
2023-01-19T20:46:37.483Z,109.43
2023-01-19T20:49:41.150Z,117.78
2023-01-19T20:52:44.370Z,96.43
2023-01-19T20:55:47.925Z,100.40
2023-01-19T20:58:51.936Z,60.78
2023-01-19T21:01:55.809Z,73.28
2023-01-19T21:04:59.950Z,125.33
2023-01-19T21:08:03.873Z,71.05
2023-01-19T21:11:08.957Z,83.57
2023-01-19T21:14:11.890Z,68.43
2023-01-19T21:17:15.837Z,50.63
2023-01-19T21:20:19.897Z,19.55
2023-01-19T21:23:24.927Z,27.63
2023-01-19T21:26:32.122Z,15.23
2023-01-19T21:29:36.152Z,17.98
2023-01-19T21:32:39.752Z,25.02
2023-01-19T21:36:03.819Z,73.00
2023-01-19T21:39:08.620Z,79.97
2023-01-19T21:42:11.609Z,52.20
2023-01-19T21:45:14.837Z,101.53
2023-01-19T21:48:18.301Z,106.07
2023-01-19T21:51:21.151Z,96.82
2023-01-19T21:54:24.762Z,78.63
2023-01-19T21:57:28.009Z,120.37
2023-01-19T22:00:32.232Z,86.00
2023-01-19T22:03:36.029Z,87.03
2023-01-19T22:06:40.081Z,77.83
2023-01-19T22:09:44.083Z,37.10
2023-01-19T22:12:47.541Z,52.53
2023-01-19T22:15:59.518Z,68.95
2023-01-19T22:19:03.130Z,67.10
2023-01-19T22:22:06.616Z,57.50
2023-01-19T22:25:11.241Z,61.83
2023-01-19T22:28:14.436Z,66.13
2023-01-19T22:31:19.657Z,81.05
2023-01-19T22:34:23.406Z,82.00
2023-01-19T22:37:27.446Z,101.20
2023-01-19T22:40:31.023Z,120.70
2023-01-19T22:43:35.088Z,130.27
2023-01-19T22:46:39.185Z,90.90
2023-01-19T22:49:43.210Z,76.55
2023-01-19T22:52:46.751Z,80.53
2023-01-19T22:55:50.579Z,93.70
2023-01-19T22:58:54.673Z,139.43
2023-01-19T23:01:58.842Z,104.13
2023-01-19T23:05:02.143Z,117.03
2023-01-19T23:08:06.465Z,111.03
2023-01-19T23:11:17.094Z,100.95
2023-01-19T23:14:22.675Z,80.25
2023-01-19T23:17:25.645Z,107.28
2023-01-19T23:20:29.295Z,105.80
2023-01-19T23:23:34.381Z,86.72
2023-01-19T23:26:41.183Z,132.20
2023-01-19T23:29:44.647Z,121.60
2023-01-19T23:32:49.238Z,162.25
2023-01-19T23:35:52.865Z,146.75
2023-01-19T23:39:01.285Z,143.77
2023-01-19T23:42:05.645Z,135.55
2023-01-19T23:45:10.062Z,169.65
2023-01-19T23:48:13.688Z,129.57
2023-01-19T23:51:25.932Z,136.82
2023-01-19T23:54:28.873Z,134.05
2023-01-19T23:57:32.409Z,134.88
